createdAt,value
2016-06-08T00:00:41.761Z,18.46
2016-06-08T00:01:38.718Z,18.48
2016-06-08T00:02:42.080Z,18.46
2016-06-08T00:03:38.988Z,18.46
2016-06-08T00:04:38.569Z,18.51
2016-06-08T00:05:38.509Z,18.45
2016-06-08T00:06:38.481Z,18.49
2016-06-08T00:07:38.436Z,18.46
2016-06-08T00:08:38.392Z,18.43
2016-06-08T00:09:44.380Z,18.46
2016-06-08T00:10:38.335Z,18.48
2016-06-08T00:11:38.510Z,18.48
2016-06-08T00:12:38.215Z,18.45
2016-06-08T00:13:38.171Z,18.46
2016-06-08T00:14:38.112Z,18.37
2016-06-08T00:15:38.083Z,18.36
2016-06-08T00:16:41.039Z,18.39
2016-06-08T00:17:37.823Z,18.34
2016-06-08T00:18:37.794Z,18.41
2016-06-08T00:19:37.890Z,18.52
2016-06-08T00:20:37.846Z,18.49
2016-06-08T00:21:40.818Z,18.43
2016-06-08T00:22:37.774Z,18.45
2016-06-08T00:23:37.542Z,18.37
2016-06-08T00:24:37.669Z,18.39
2016-06-08T00:25:37.626Z,18.39
2016-06-08T00:26:37.737Z,18.28
2016-06-08T00:27:40.568Z,18.31
2016-06-08T00:28:37.680Z,18.39
2016-06-08T00:29:37.464Z,18.37
2016-06-08T00:30:37.451Z,18.42
2016-06-08T00:31:37.345Z,18.3
2016-06-08T00:32:40.317Z,18.26
2016-06-08T00:33:37.772Z,18.39
2016-06-08T00:34:37.197Z,18.27
2016-06-08T00:35:43.168Z,18.41
2016-06-08T00:36:40.108Z,18.36
2016-06-08T00:37:37.080Z,18.31
2016-06-08T00:38:37.019Z,18.37
2016-06-08T00:39:39.992Z,18.24
2016-06-08T00:40:39.947Z,18.24
2016-06-08T00:41:37.356Z,18.21
2016-06-08T00:42:40.047Z,18.18
2016-06-08T00:43:39.799Z,18.21
2016-06-08T00:44:36.958Z,18.26
2016-06-08T00:45:36.695Z,18.24
2016-06-08T00:46:36.682Z,18.24
2016-06-08T00:47:39.607Z,18.23
2016-06-08T00:48:39.563Z,18.27
2016-06-08T00:49:39.549Z,18.16
2016-06-08T00:50:36.459Z,18.16
2016-06-08T00:51:39.414Z,18.19
2016-06-08T00:52:36.370Z,18.18
2016-06-08T00:53:39.763Z,18.16
2016-06-08T00:54:39.484Z,18.15
2016-06-08T00:55:39.254Z,18.19
2016-06-08T00:56:37.131Z,18.16
2016-06-08T00:57:39.243Z,18.15
2016-06-08T00:58:39.574Z,18.21
2016-06-08T00:59:39.076Z,18.19
2016-06-08T01:00:36.017Z,18.08
2016-06-08T01:01:42.206Z,18.16
2016-06-08T01:02:38.928Z,18.16
2016-06-08T01:03:36.087Z,18.16
2016-06-08T01:04:35.825Z,18.19
2016-06-08T01:05:38.967Z,18.24
2016-06-08T01:06:45.377Z,18.23
2016-06-08T01:07:35.894Z,18.31
2016-06-08T01:08:35.647Z,18.16
2016-06-08T01:09:38.635Z,18.26
2016-06-08T01:10:35.574Z,18.24
2016-06-08T01:11:39.312Z,18.15
2016-06-08T01:12:35.471Z,18.23
2016-06-08T01:13:35.411Z,18.28
2016-06-08T01:14:38.383Z,18.13
2016-06-08T01:15:35.354Z,18.15
2016-06-08T01:16:35.341Z,18
2016-06-08T01:17:35.249Z,18.09
2016-06-08T01:18:35.190Z,18.06
2016-06-08T01:19:38.146Z,18.03
2016-06-08T01:20:38.118Z,18.06
2016-06-08T01:21:38.073Z,18.02
2016-06-08T01:22:38.029Z,18.05
2016-06-08T01:23:41.001Z,18.08
2016-06-08T01:24:37.940Z,18
2016-06-08T01:25:38.099Z,18.05
2016-06-08T01:26:38.195Z,18.09
2016-06-08T01:27:37.996Z,18.06
2016-06-08T01:28:46.764Z,18.05
2016-06-08T01:29:37.704Z,18.02
2016-06-08T01:30:34.660Z,18.08
2016-06-08T01:31:37.631Z,18.12
2016-06-08T01:32:37.572Z,18.09
2016-06-08T01:33:34.527Z,18.11
2016-06-08T01:34:34.452Z,18.11
2016-06-08T01:35:37.423Z,18.05
2016-06-08T01:36:37.395Z,18.18
2016-06-08T01:37:37.350Z,18.16
2016-06-08T01:38:34.291Z,18.13
2016-06-08T01:39:34.449Z,18.18
2016-06-08T01:40:37.202Z,18.18
2016-06-08T01:41:34.767Z,18.19
2016-06-08T01:42:37.394Z,18.21
2016-06-08T01:43:37.055Z,18.27
2016-06-08T01:44:34.025Z,18.42
2016-06-08T01:45:33.950Z,18.37
2016-06-08T01:46:33.938Z,18.34
2016-06-08T01:47:39.908Z,18.37
2016-06-08T01:48:36.740Z,18.36
2016-06-08T01:49:36.820Z,18.42
2016-06-08T01:50:36.745Z,18.46
2016-06-08T01:51:36.904Z,18.41
2016-06-08T01:52:33.641Z,18.36
2016-06-08T01:53:33.596Z,18.37
2016-06-08T01:54:33.552Z,18.28
2016-06-08T01:55:36.523Z,18.27
2016-06-08T01:56:33.495Z,18.33
2016-06-08T01:57:33.920Z,18.39
2016-06-08T01:58:33.407Z,18.28
2016-06-08T01:59:33.316Z,18.28
2016-06-08T02:00:33.272Z,18.24
2016-06-08T02:01:33.243Z,18.21
2016-06-08T02:02:33.199Z,18.23
2016-06-08T02:03:33.139Z,18.26
2016-06-08T02:04:36.095Z,18.23
2016-06-08T02:05:36.066Z,18.19
2016-06-08T02:06:33.006Z,18.13
2016-06-08T02:07:35.994Z,18.06
2016-06-08T02:08:35.934Z,18.02
2016-06-08T02:09:44.889Z,17.95
2016-06-08T02:10:32.830Z,17.95
2016-06-08T02:11:37.066Z,17.95
2016-06-08T02:12:41.898Z,17.97
2016-06-08T02:13:33.088Z,17.95
2016-06-08T02:14:35.856Z,17.91
2016-06-08T02:15:35.609Z,17.9
2016-06-08T02:16:32.565Z,17.79
2016-06-08T02:17:35.505Z,17.84
2016-06-08T02:18:32.461Z,17.79
2016-06-08T02:19:35.448Z,17.8
2016-06-08T02:20:32.372Z,17.8
2016-06-08T02:21:32.328Z,17.73
2016-06-08T02:22:35.299Z,17.76
2016-06-08T02:23:32.240Z,17.72
2016-06-08T02:24:38.227Z,17.76
2016-06-08T02:25:35.167Z,17.73
2016-06-08T02:26:32.092Z,17.76
2016-06-08T02:27:31.922Z,17.76
2016-06-08T02:28:32.018Z,17.84
2016-06-08T02:29:34.975Z,17.75
2016-06-08T02:30:31.898Z,17.79
2016-06-08T02:31:31.871Z,17.76
2016-06-08T02:32:34.842Z,17.68
2016-06-08T02:33:31.767Z,17.78
2016-06-08T02:34:31.582Z,17.68
2016-06-08T02:35:34.694Z,17.68
2016-06-08T02:36:31.494Z,17.6
2016-06-08T02:37:31.606Z,17.68
2016-06-08T02:38:31.577Z,17.6
2016-06-08T02:39:31.705Z,17.66
2016-06-08T02:40:31.364Z,17.65
2016-06-08T02:41:34.413Z,17.6
2016-06-08T02:42:32.244Z,17.57
2016-06-08T02:43:31.324Z,17.59
2016-06-08T02:44:31.280Z,17.54
2016-06-08T02:45:34.253Z,17.59
2016-06-08T02:46:34.191Z,17.56
2016-06-08T02:47:31.008Z,17.52
2016-06-08T02:48:37.119Z,17.57
2016-06-08T02:49:31.060Z,17.54
2016-06-08T02:50:34.016Z,17.6
2016-06-08T02:51:30.971Z,17.52
2016-06-08T02:52:30.912Z,17.63
2016-06-08T02:53:34.071Z,17.57
2016-06-08T02:54:30.838Z,17.56
2016-06-08T02:55:30.841Z,17.49
2016-06-08T02:56:33.766Z,17.52
2016-06-08T02:57:33.721Z,17.47
2016-06-08T02:58:33.662Z,17.44
2016-06-08T02:59:30.617Z,17.54
2016-06-08T03:00:30.542Z,17.41
2016-06-08T03:01:30.499Z,17.42
2016-06-08T03:02:30.453Z,17.42
2016-06-08T03:03:33.426Z,17.38
2016-06-08T03:04:30.365Z,17.38
2016-06-08T03:05:30.306Z,17.31
2016-06-08T03:06:33.481Z,17.31
2016-06-08T03:07:30.217Z,17.31
2016-06-08T03:08:30.173Z,17.38
2016-06-08T03:09:30.129Z,17.24
2016-06-08T03:10:29.928Z,17.24
2016-06-08T03:11:30.056Z,17.31
2016-06-08T03:12:30.309Z,17.28
2016-06-08T03:13:36.186Z,17.38
2016-06-08T03:14:29.908Z,17.28
2016-06-08T03:15:30.207Z,17.27
2016-06-08T03:16:29.882Z,17.34
2016-06-08T03:17:29.761Z,17.28
2016-06-08T03:18:29.732Z,17.38
2016-06-08T03:19:29.656Z,17.37
2016-06-08T03:20:29.862Z,17.38
2016-06-08T03:21:29.599Z,17.39
2016-06-08T03:22:29.538Z,17.42
2016-06-08T03:23:29.338Z,17.39
2016-06-08T03:24:29.451Z,17.42
2016-06-08T03:25:29.407Z,17.39
2016-06-08T03:26:29.566Z,17.46
2016-06-08T03:27:29.584Z,17.39
2016-06-08T03:28:29.118Z,17.41
2016-06-08T03:29:32.229Z,17.39
2016-06-08T03:30:29.154Z,17.37
2016-06-08T03:31:28.969Z,17.38
2016-06-08T03:32:32.284Z,17.35
2016-06-08T03:33:28.882Z,17.41
2016-06-08T03:34:29.196Z,17.42
2016-06-08T03:35:28.934Z,17.41
2016-06-08T03:36:28.889Z,17.39
2016-06-08T03:37:28.689Z,17.53
2016-06-08T03:38:31.817Z,17.53
2016-06-08T03:39:31.772Z,17.56
2016-06-08T03:40:31.744Z,17.63
2016-06-08T03:41:31.669Z,17.66
2016-06-08T03:42:32.031Z,17.63
2016-06-08T03:43:31.580Z,17.6
2016-06-08T03:44:28.520Z,17.65
2016-06-08T03:45:28.476Z,17.63
2016-06-08T03:46:28.635Z,17.6
2016-06-08T03:47:31.402Z,17.68
2016-06-08T03:48:28.328Z,17.69
2016-06-08T03:49:28.299Z,17.68
2016-06-08T03:50:34.286Z,17.65
2016-06-08T03:51:28.210Z,17.68
2016-06-08T03:52:34.369Z,17.65
2016-06-08T03:53:31.107Z,17.68
2016-06-08T03:54:31.079Z,17.72
2016-06-08T03:55:31.034Z,17.72
2016-06-08T03:56:28.005Z,17.75
2016-06-08T03:57:28.382Z,17.75
2016-06-08T03:58:30.761Z,17.76
2016-06-08T03:59:27.858Z,17.78
2016-06-08T04:00:27.798Z,17.75
2016-06-08T04:01:27.753Z,17.72
2016-06-08T04:02:27.725Z,17.72
2016-06-08T04:03:33.681Z,17.75
2016-06-08T04:04:27.636Z,17.71
2016-06-08T04:05:27.576Z,17.76
2016-06-08T04:06:30.532Z,17.78
2016-06-08T04:07:27.489Z,17.78
2016-06-08T04:08:27.459Z,17.88
2016-06-08T04:09:27.447Z,17.88
2016-06-08T04:10:27.340Z,17.9
2016-06-08T04:11:27.170Z,17.94
2016-06-08T04:12:27.798Z,17.94
2016-06-08T04:13:27.488Z,17.9
2016-06-08T04:14:27.148Z,17.97
2016-06-08T04:15:27.323Z,17.93
2016-06-08T04:16:27.091Z,17.95
2016-06-08T04:17:27.030Z,18
2016-06-08T04:18:29.986Z,17.97
2016-06-08T04:19:27.146Z,17.97
2016-06-08T04:20:26.866Z,17.95
2016-06-08T04:21:26.838Z,17.98
2016-06-08T04:22:29.794Z,18.02
2016-06-08T04:23:29.750Z,18.05
2016-06-08T04:24:27.112Z,18.18
2016-06-08T04:25:26.677Z,18.16
2016-06-08T04:26:26.602Z,18.15
2016-06-08T04:27:27.135Z,18.21
2016-06-08T04:28:26.873Z,18.16
2016-06-08T04:29:26.672Z,18.13
2016-06-08T04:30:26.426Z,18.28
2016-06-08T04:31:29.429Z,18.16
2016-06-08T04:32:26.743Z,18.12
2016-06-08T04:33:26.293Z,18.21
2016-06-08T04:34:26.248Z,18.3
2016-06-08T04:35:26.251Z,18.28
2016-06-08T04:36:26.159Z,18.23
2016-06-08T04:37:26.131Z,18.3
2016-06-08T04:38:26.072Z,18.39
2016-06-08T04:39:26.621Z,18.36
2016-06-08T04:40:25.983Z,18.3
2016-06-08T04:41:26.126Z,18.42
2016-06-08T04:42:26.098Z,18.37
2016-06-08T04:43:25.710Z,18.39
2016-06-08T04:44:25.791Z,18.51
2016-06-08T04:45:31.777Z,18.39
2016-06-08T04:46:28.719Z,18.45
2016-06-08T04:47:25.878Z,18.45
2016-06-08T04:48:25.614Z,18.51
2016-06-08T04:49:25.757Z,18.58
2016-06-08T04:50:25.510Z,18.66
2016-06-08T04:51:25.482Z,18.66
2016-06-08T04:52:25.624Z,18.7
2016-06-08T04:53:25.378Z,18.63
2016-06-08T04:54:25.365Z,18.78
2016-06-08T04:55:25.305Z,18.71
2016-06-08T04:56:25.245Z,18.81
2016-06-08T04:57:29.169Z,18.76
2016-06-08T04:58:25.891Z,18.64
2016-06-08T04:59:28.128Z,18.68
2016-06-08T05:00:25.068Z,18.79
2016-06-08T05:01:25.039Z,18.71
2016-06-08T05:02:24.995Z,18.79
2016-06-08T05:03:24.952Z,18.74
2016-06-08T05:04:24.907Z,18.81
2016-06-08T05:05:27.832Z,18.76
2016-06-08T05:06:24.665Z,18.64
2016-06-08T05:07:24.756Z,18.81
2016-06-08T05:08:25.661Z,18.78
2016-06-08T05:09:27.704Z,18.79
2016-06-08T05:10:27.671Z,18.76
2016-06-08T05:11:24.634Z,18.78
2016-06-08T05:12:25.048Z,18.74
2016-06-08T05:13:28.616Z,18.81
2016-06-08T05:14:24.483Z,18.73
2016-06-08T05:15:24.457Z,18.78
2016-06-08T05:16:24.416Z,18.78
2016-06-08T05:17:24.217Z,18.83
2016-06-08T05:18:24.331Z,18.94
2016-06-08T05:19:27.303Z,18.98
2016-06-08T05:20:24.245Z,18.96
2016-06-08T05:21:24.421Z,18.97
2016-06-08T05:22:27.157Z,19.05
2016-06-08T05:23:24.317Z,19.11
2016-06-08T05:24:24.070Z,19.07
2016-06-08T05:25:23.886Z,19.11
2016-06-08T05:26:23.967Z,19.04
2016-06-08T05:27:23.939Z,19.01
2016-06-08T05:28:23.926Z,19.05
2016-06-08T05:29:23.864Z,19.15
2016-06-08T05:30:23.789Z,19.07
2016-06-08T05:31:23.963Z,19.12
2016-06-08T05:32:23.701Z,19.17
2016-06-08T05:33:23.673Z,19.19
2016-06-08T05:34:23.644Z,19.09
2016-06-08T05:35:26.587Z,19.16
2016-06-08T05:36:23.524Z,19.08
2016-06-08T05:37:26.905Z,19.11
2016-06-08T05:38:23.640Z,19.05
2016-06-08T05:39:26.394Z,19.15
2016-06-08T05:40:23.347Z,19.08
2016-06-08T05:41:23.304Z,19.11
2016-06-08T05:42:23.353Z,19.04
2016-06-08T05:43:23.590Z,19.11
2016-06-08T05:44:26.189Z,19.11
2016-06-08T05:45:23.142Z,19.11
2016-06-08T05:46:26.273Z,19.15
2016-06-08T05:47:23.039Z,19.17
2016-06-08T05:48:22.978Z,19.2
2016-06-08T05:49:25.984Z,19.19
2016-06-08T05:50:22.906Z,19.17
2016-06-08T05:51:22.861Z,19.17
2016-06-08T05:52:22.802Z,19.23
2016-06-08T05:53:22.820Z,19.23
2016-06-08T05:54:22.729Z,19.12
2016-06-08T05:55:25.687Z,19.05
2016-06-08T05:56:25.659Z,19.01
2016-06-08T05:57:22.581Z,19.04
2016-06-08T05:58:22.849Z,18.92
2016-06-08T05:59:25.916Z,19.04
2016-06-08T06:00:25.451Z,18.91
2016-06-08T06:01:25.422Z,19.01
2016-06-08T06:02:22.360Z,18.92
2016-06-08T06:03:22.393Z,19.01
2016-06-08T06:04:22.271Z,18.97
2016-06-08T06:05:28.262Z,18.96
2016-06-08T06:06:25.171Z,18.94
2016-06-08T06:07:25.142Z,18.96
2016-06-08T06:08:22.095Z,19
2016-06-08T06:09:22.050Z,19.01
2016-06-08T06:10:22.006Z,19.01
2016-06-08T06:11:21.978Z,18.96
2016-06-08T06:12:24.917Z,19.01
2016-06-08T06:13:21.905Z,19.07
2016-06-08T06:14:27.832Z,19.11
2016-06-08T06:15:24.801Z,19.11
2016-06-08T06:16:21.929Z,19.16
2016-06-08T06:17:24.697Z,19.12
2016-06-08T06:18:21.669Z,19.16
2016-06-08T06:19:24.811Z,19.16
2016-06-08T06:20:30.567Z,19.19
2016-06-08T06:21:21.911Z,19.17
2016-06-08T06:22:27.494Z,19.17
2016-06-08T06:23:27.278Z,19.26
2016-06-08T06:24:21.372Z,19.23
2016-06-08T06:25:21.328Z,19.24
2016-06-08T06:26:24.299Z,19.17
2016-06-08T06:27:21.239Z,19.23
2016-06-08T06:28:22.258Z,19.29
2016-06-08T06:29:21.151Z,19.3
2016-06-08T06:30:24.107Z,19.29
2016-06-08T06:31:24.046Z,19.3
2016-06-08T06:32:24.206Z,19.3
2016-06-08T06:33:20.960Z,19.35
2016-06-08T06:34:20.915Z,19.32
2016-06-08T06:35:21.495Z,19.42
2016-06-08T06:36:27.126Z,19.37
2016-06-08T06:37:23.829Z,19.39
2016-06-08T06:38:26.975Z,19.39
2016-06-08T06:39:20.553Z,19.39
2016-06-08T06:40:23.649Z,19.34
2016-06-08T06:41:21.012Z,19.44
2016-06-08T06:42:20.561Z,19.38
2016-06-08T06:43:23.673Z,19.34
2016-06-08T06:44:23.692Z,19.37
2016-06-08T06:45:20.585Z,19.42
2016-06-08T06:46:23.806Z,19.34
2016-06-08T06:47:26.187Z,19.37
2016-06-08T06:48:20.312Z,19.41
2016-06-08T06:49:26.255Z,19.47
2016-06-08T06:50:23.192Z,19.47
2016-06-08T06:51:20.178Z,19.39
2016-06-08T06:52:20.119Z,19.44
2016-06-08T06:53:20.309Z,19.47
2016-06-08T06:54:23.234Z,19.48
2016-06-08T06:55:20.003Z,19.52
2016-06-08T06:56:25.989Z,19.57
2016-06-08T06:57:19.883Z,19.66
2016-06-08T06:58:20.088Z,19.62
2016-06-08T06:59:19.654Z,19.64
2016-06-08T07:00:25.844Z,19.74
2016-06-08T07:01:19.721Z,19.78
2016-06-08T07:02:19.677Z,19.79
2016-06-08T07:03:19.477Z,19.74
2016-06-08T07:04:22.589Z,19.82
2016-06-08T07:05:23.155Z,19.82
2016-06-08T07:06:19.500Z,19.82
2016-06-08T07:07:22.660Z,19.85
2016-06-08T07:08:19.413Z,19.9
2016-06-08T07:09:19.212Z,19.96
2016-06-08T07:10:19.309Z,19.96
2016-06-08T07:11:19.357Z,19.92
2016-06-08T07:12:19.235Z,19.94
2016-06-08T07:13:19.035Z,19.99
2016-06-08T07:14:19.147Z,19.96
2016-06-08T07:15:19.087Z,19.97
2016-06-08T07:16:19.074Z,19.94
2016-06-08T07:17:19.061Z,19.93
2016-06-08T07:18:19.174Z,20
2016-06-08T07:19:18.802Z,20
2016-06-08T07:20:18.887Z,19.99
2016-06-08T07:21:18.859Z,19.97
2016-06-08T07:22:18.785Z,20.04
2016-06-08T07:23:18.724Z,20.11
2016-06-08T07:24:18.528Z,20.08
2016-06-08T07:25:21.639Z,20.1
2016-06-08T07:26:18.625Z,20.08
2016-06-08T07:27:18.565Z,20.08
2016-06-08T07:28:18.365Z,20.1
2016-06-08T07:29:18.681Z,20.14
2016-06-08T07:30:18.448Z,20.1
2016-06-08T07:31:18.233Z,20.24
2016-06-08T07:32:18.375Z,20.29
2016-06-08T07:33:18.300Z,20.32
2016-06-08T07:34:18.256Z,20.46
2016-06-08T07:35:18.203Z,20.63
2016-06-08T07:36:18.252Z,20.58
2016-06-08T07:37:18.317Z,20.64
2016-06-08T07:38:18.476Z,20.66
2016-06-08T07:39:21.245Z,20.73
2016-06-08T07:40:20.997Z,20.74
2016-06-08T07:41:18.145Z,20.78
2016-06-08T07:42:17.914Z,20.82
2016-06-08T07:43:20.916Z,20.8
2016-06-08T07:44:17.841Z,20.77
2016-06-08T07:45:17.781Z,20.83
2016-06-08T07:46:17.737Z,20.96
2016-06-08T07:47:17.896Z,20.96
2016-06-08T07:48:17.648Z,20.96
2016-06-08T07:49:17.604Z,21.04
2016-06-08T07:50:17.623Z,21.07
2016-06-08T07:51:17.511Z,21.04
2016-06-08T07:52:18.591Z,21.03
2016-06-08T07:53:17.454Z,21.13
2016-06-08T07:54:17.332Z,21.05
2016-06-08T07:55:17.428Z,21.11
2016-06-08T07:56:20.151Z,21.11
2016-06-08T07:57:17.310Z,21.15
2016-06-08T07:58:17.406Z,21.22
2016-06-08T07:59:20.409Z,21.2
2016-06-08T08:00:17.100Z,21.19
2016-06-08T08:01:17.086Z,21.19
2016-06-08T08:02:17.011Z,21.17
2016-06-08T08:03:17.498Z,21.2
2016-06-08T08:04:23.173Z,21.23
2016-06-08T08:05:16.910Z,21.22
2016-06-08T08:06:16.694Z,21.15
2016-06-08T08:07:16.650Z,21.32
2016-06-08T08:08:16.794Z,21.23
2016-06-08T08:09:17.359Z,21.35
2016-06-08T08:10:19.970Z,21.38
2016-06-08T08:11:16.617Z,21.35
2016-06-08T08:12:16.572Z,21.33
2016-06-08T08:13:19.560Z,21.44
2016-06-08T08:14:16.352Z,21.45
2016-06-08T08:15:16.447Z,21.54
2016-06-08T08:16:16.450Z,21.51
2016-06-08T08:17:16.249Z,21.6
2016-06-08T08:18:16.424Z,21.58
2016-06-08T08:19:16.302Z,21.65
2016-06-08T08:20:16.227Z,21.53
2016-06-08T08:21:16.432Z,21.59
2016-06-08T08:22:19.154Z,21.59
2016-06-08T08:23:16.109Z,21.69
2016-06-08T08:24:16.066Z,21.69
2016-06-08T08:25:16.022Z,21.7
2016-06-08T08:26:15.992Z,21.84
2016-06-08T08:27:15.933Z,21.91
2016-06-08T08:28:16.264Z,21.89
2016-06-08T08:29:15.829Z,21.89
2016-06-08T08:30:15.785Z,21.92
2016-06-08T08:31:15.975Z,22
2016-06-08T08:32:15.712Z,22.04
2016-06-08T08:33:15.698Z,22.03
2016-06-08T08:34:15.670Z,22.07
2016-06-08T08:35:18.861Z,22.06
2016-06-08T08:36:18.410Z,22.15
2016-06-08T08:37:15.506Z,22.15
2016-06-08T08:38:15.462Z,22.26
2016-06-08T08:39:15.387Z,22.21
2016-06-08T08:40:15.375Z,22.25
2016-06-08T08:41:15.299Z,22.3
2016-06-08T08:42:15.270Z,22.4
2016-06-08T08:43:15.211Z,22.38
2016-06-08T08:44:15.120Z,22.44
2016-06-08T08:45:15.153Z,22.55
2016-06-08T08:46:18.109Z,22.62
2016-06-08T08:47:15.096Z,22.62
2016-06-08T08:48:15.052Z,22.65
2016-06-08T08:49:15.320Z,22.62
2016-06-08T08:50:18.026Z,22.61
2016-06-08T08:51:14.888Z,22.53
2016-06-08T08:52:14.874Z,22.44
2016-06-08T08:53:14.862Z,22.46
2016-06-08T08:54:17.771Z,22.4
2016-06-08T08:55:14.711Z,22.43
2016-06-08T08:56:14.870Z,22.37
2016-06-08T08:57:14.638Z,22.4
2016-06-08T08:58:14.766Z,22.4
2016-06-08T08:59:14.535Z,22.4
2016-06-08T09:00:14.335Z,22.46
2016-06-08T09:01:14.445Z,22.34
2016-06-08T09:02:14.418Z,22.53
2016-06-08T09:03:14.390Z,22.56
2016-06-08T09:04:17.407Z,22.53
2016-06-08T09:05:14.301Z,22.58
2016-06-08T09:06:14.303Z,22.63
2016-06-08T09:07:14.212Z,22.71
2016-06-08T09:08:14.137Z,22.68
2016-06-08T09:09:14.124Z,22.76
2016-06-08T09:10:14.502Z,22.7
2016-06-08T09:11:14.051Z,22.71
2016-06-08T09:12:13.991Z,22.71
2016-06-08T09:13:14.260Z,22.73
2016-06-08T09:14:16.919Z,22.74
2016-06-08T09:15:14.141Z,22.78
2016-06-08T09:16:13.799Z,22.8
2016-06-08T09:17:18.177Z,22.83
2016-06-08T09:18:19.945Z,22.86
2016-06-08T09:19:13.885Z,22.84
2016-06-08T09:20:13.638Z,22.88
2016-06-08T09:21:13.703Z,22.96
2016-06-08T09:22:13.550Z,22.91
2016-06-08T09:23:16.365Z,22.83
2016-06-08T09:24:13.665Z,22.77
2016-06-08T09:25:13.448Z,22.81
2016-06-08T09:26:13.373Z,22.77
2016-06-08T09:27:13.391Z,22.78
2016-06-08T09:28:13.488Z,22.81
2016-06-08T09:29:13.834Z,22.81
2016-06-08T09:30:16.195Z,22.81
2016-06-08T09:31:13.152Z,22.81
2016-06-08T09:32:13.107Z,22.8
2016-06-08T09:33:13.064Z,22.77
2016-06-08T09:34:13.034Z,22.65
2016-06-08T09:35:13.100Z,22.59
2016-06-08T09:36:13.181Z,22.49
2016-06-08T09:37:13.105Z,22.53
2016-06-08T09:38:12.858Z,22.46
2016-06-08T09:39:16.173Z,22.59
2016-06-08T09:40:24.879Z,22.68
2016-06-08T09:41:12.820Z,22.67
2016-06-08T09:42:15.681Z,22.59
2016-06-08T09:43:12.700Z,22.58
2016-06-08T09:44:12.750Z,22.77
2016-06-08T09:45:15.831Z,22.78
2016-06-08T09:46:12.817Z,22.96
2016-06-08T09:47:12.461Z,22.99
2016-06-08T09:48:12.432Z,23.13
2016-06-08T09:49:12.622Z,23.1
2016-06-08T09:50:12.344Z,23.08
2016-06-08T09:51:12.627Z,23.25
2016-06-08T09:52:12.318Z,23.32
2016-06-08T09:53:12.210Z,23.23
2016-06-08T09:54:12.199Z,23.26
2016-06-08T09:55:12.185Z,23.25
2016-06-08T09:56:12.094Z,23.26
2016-06-08T09:57:12.096Z,23.32
2016-06-08T09:58:12.006Z,23.18
2016-06-08T09:59:11.977Z,23.25
2016-06-08T10:00:15.073Z,23.28
2016-06-08T10:01:21.295Z,23.25
2016-06-08T10:02:11.845Z,23.28
2016-06-08T10:03:11.801Z,23.23
2016-06-08T10:04:11.647Z,23.32
2016-06-08T10:05:14.712Z,23.28
2016-06-08T10:06:11.590Z,23.39
2016-06-08T10:07:11.609Z,23.4
2016-06-08T10:08:11.596Z,23.34
2016-06-08T10:09:11.738Z,23.33
2016-06-08T10:10:11.492Z,23.33
2016-06-08T10:11:11.431Z,23.26
2016-06-08T10:12:11.403Z,23.39
2016-06-08T10:13:11.047Z,23.39
2016-06-08T10:14:11.908Z,23.34
2016-06-08T10:15:12.208Z,23.34
2016-06-08T10:16:11.445Z,23.36
2016-06-08T10:17:11.198Z,23.33
2016-06-08T10:18:11.216Z,23.4
2016-06-08T10:19:11.108Z,23.39
2016-06-08T10:20:11.205Z,23.34
2016-06-08T10:21:11.021Z,23.34
2016-06-08T10:22:11.024Z,23.47
2016-06-08T10:23:10.963Z,23.34
2016-06-08T10:24:16.372Z,23.29
2016-06-08T10:25:10.843Z,23.42
2016-06-08T10:26:10.815Z,23.48
2016-06-08T10:27:10.771Z,23.49
2016-06-08T10:28:10.587Z,23.45
2016-06-08T10:29:14.496Z,23.37
2016-06-08T10:30:11.482Z,23.37
2016-06-08T10:31:16.641Z,23.49
2016-06-08T10:32:10.768Z,23.45
2016-06-08T10:33:10.726Z,23.54
2016-06-08T10:34:10.681Z,23.49
2016-06-08T10:35:13.418Z,23.32
2016-06-08T10:36:10.592Z,23.37
2016-06-08T10:37:10.532Z,23.29
2016-06-08T10:38:10.285Z,23.44
2016-06-08T10:39:10.382Z,23.47
2016-06-08T10:40:13.072Z,23.64
2016-06-08T10:41:10.278Z,23.7
2016-06-08T10:42:10.171Z,23.73
2016-06-08T10:43:10.267Z,23.74
2016-06-08T10:44:10.161Z,23.7
2016-06-08T10:45:10.508Z,23.64
2016-06-08T10:46:10.603Z,23.64
2016-06-08T10:47:12.934Z,23.62
2016-06-08T10:48:10.077Z,23.59
2016-06-08T10:49:09.939Z,23.62
2016-06-08T10:50:09.771Z,23.58
2016-06-08T10:51:10.195Z,23.58
2016-06-08T10:52:12.713Z,23.67
2016-06-08T10:53:09.497Z,23.64
2016-06-08T10:54:09.703Z,23.73
2016-06-08T10:55:09.581Z,23.82
2016-06-08T10:56:09.537Z,23.96
2016-06-08T10:57:09.476Z,23.94
2016-06-08T10:58:09.276Z,23.88
2016-06-08T10:59:10.232Z,23.91
2016-06-08T11:00:09.485Z,23.99
2016-06-08T11:01:09.316Z,24.09
2016-06-08T11:02:09.257Z,24.03
2016-06-08T11:03:09.446Z,24.07
2016-06-08T11:04:09.027Z,24.04
2016-06-08T11:05:09.389Z,24.19
2016-06-08T11:06:09.220Z,24.46
2016-06-08T11:07:08.926Z,24.47
2016-06-08T11:08:09.007Z,24.29
2016-06-08T11:09:08.978Z,24.34
2016-06-08T11:10:14.793Z,24.37
2016-06-08T11:11:08.920Z,24.44
2016-06-08T11:12:08.845Z,24.28
2016-06-08T11:13:08.801Z,24.29
2016-06-08T11:14:09.241Z,24.21
2016-06-08T11:15:08.900Z,24.32
2016-06-08T11:16:08.512Z,24.36
2016-06-08T11:17:08.780Z,24.44
2016-06-08T11:18:08.596Z,24.41
2016-06-08T11:19:08.614Z,24.36
2016-06-08T11:20:08.554Z,24.28
2016-06-08T11:21:08.776Z,24.43
2016-06-08T11:22:08.920Z,24.37
2016-06-08T11:23:08.515Z,24.55
2016-06-08T11:24:08.331Z,24.43
2016-06-08T11:25:08.302Z,24.48
2016-06-08T11:26:08.258Z,24.46
2016-06-08T11:27:08.292Z,24.46
2016-06-08T11:28:08.185Z,24.4
2016-06-08T11:29:11.641Z,24.44
2016-06-08T11:30:08.691Z,24.48
2016-06-08T11:31:08.146Z,24.71
2016-06-08T11:32:07.993Z,24.71
2016-06-08T11:33:07.824Z,24.68
2016-06-08T11:34:08.123Z,24.59
2016-06-08T11:35:10.970Z,24.51
2016-06-08T11:36:07.848Z,24.51
2016-06-08T11:37:07.787Z,24.46
2016-06-08T11:38:08.493Z,24.5
2016-06-08T11:39:07.714Z,24.74
2016-06-08T11:40:07.514Z,24.66
2016-06-08T11:41:07.627Z,24.68
2016-06-08T11:42:07.614Z,24.78
2016-06-08T11:43:07.554Z,24.92
2016-06-08T11:44:10.744Z,25.04
2016-06-08T11:45:07.637Z,25.09
2016-06-08T11:46:07.422Z,25.19
2016-06-08T11:47:10.440Z,25.15
2016-06-08T11:48:07.036Z,25.24
2016-06-08T11:49:07.492Z,25.21
2016-06-08T11:50:06.947Z,25.14
2016-06-08T11:51:07.888Z,25.09
2016-06-08T11:52:07.391Z,25.12
2016-06-08T11:53:07.018Z,25.18
2016-06-08T11:54:13.224Z,25.16
2016-06-08T11:55:09.914Z,25.22
2016-06-08T11:56:06.994Z,25.15
2016-06-08T11:57:06.827Z,25.21
2016-06-08T11:58:07.157Z,25.26
2016-06-08T11:59:09.940Z,25.34
2016-06-08T12:00:28.865Z,25.44
2016-06-08T12:01:06.821Z,25.44
2016-06-08T12:02:26.995Z,25.44
2016-06-08T12:03:24.889Z,25.56
2016-06-08T12:04:06.688Z,25.48
2016-06-08T12:05:09.643Z,25.37
2016-06-08T12:06:09.601Z,25.3
2016-06-08T12:07:06.696Z,25.3
2016-06-08T12:08:06.512Z,25.31
2016-06-08T12:09:29.452Z,25.29
2016-06-08T12:10:06.642Z,25.25
2016-06-08T12:11:09.395Z,25.25
2016-06-08T12:12:06.882Z,25
2016-06-08T12:13:08.150Z,25.06
2016-06-08T12:14:06.325Z,25.06
2016-06-08T12:15:09.421Z,24.89
2016-06-08T12:16:07.408Z,24.86
2016-06-08T12:17:06.145Z,24.74
2016-06-08T12:18:08.961Z,24.71
2016-06-08T12:19:06.244Z,24.63
2016-06-08T12:20:06.059Z,24.62
2016-06-08T12:21:05.952Z,24.56
2016-06-08T12:22:05.924Z,24.53
2016-06-08T12:23:05.864Z,24.43
2016-06-08T12:24:05.852Z,24.47
2016-06-08T12:25:05.807Z,24.5
2016-06-08T12:26:05.763Z,24.48
2016-06-08T12:27:05.563Z,24.46
2016-06-08T12:28:08.753Z,24.44
2016-06-08T12:29:06.444Z,24.31
2016-06-08T12:30:05.586Z,24.4
2016-06-08T12:31:05.542Z,24.34
2016-06-08T12:32:08.921Z,24.32
2016-06-08T12:33:08.469Z,24.24
2016-06-08T12:34:09.019Z,24.28
2016-06-08T12:35:05.599Z,24.31
2016-06-08T12:36:05.337Z,24.32
2016-06-08T12:37:05.293Z,24.21
2016-06-08T12:38:11.295Z,24.25
2016-06-08T12:39:08.173Z,24.19
2016-06-08T12:40:05.379Z,24.22
2016-06-08T12:41:05.115Z,24.21
2016-06-08T12:42:05.072Z,24.19
2016-06-08T12:43:08.090Z,24.21
2016-06-08T12:44:05.718Z,24.13
2016-06-08T12:45:04.830Z,24.13
2016-06-08T12:46:04.911Z,24.21
2016-06-08T12:47:07.867Z,24.09
2016-06-08T12:48:04.869Z,24.01
2016-06-08T12:49:04.872Z,24.07
2016-06-08T12:50:04.781Z,24.13
2016-06-08T12:51:04.908Z,24.07
2016-06-08T12:52:07.755Z,24.07
2016-06-08T12:53:07.820Z,24.04
2016-06-08T12:54:04.588Z,23.96
2016-06-08T12:55:05.028Z,23.85